Aurora, CO (80018)

1:06 AM MDT on May 28, 2015 (GMT -0600)
Thunderbird Estates | | Change Station
CLOSE
Current Station
Personal Weather Station
Location: Aurora, CO
Elevation: 5617 ft
Nearby Weather Stations

Elev 5617 ft 39.71 °N, 104.70 °W | Updated 2 minutes ago

Scattered Clouds
Scattered Clouds
53.1 °F
Feels Like 53.1 °F
N
1.7
Wind Variable Wind from ESE

Today
High -- | Low -- °F
--% Chance of Precip.
Yesterday
High -- | Low -- °F
Precip. -- in
5:34 AM 8:17 PM
Waxing Gibbous, 73% visible
Pressure 29.90 in
Visibility 10.0 miles
Clouds Few 12000 ft
Scattered Clouds 22000 ft
Dew Point 48 °F
Humidity 83%
Rainfall 0.00 in
Snow Depth Not available.
UV 0 out of 12
Pollen 8.00 out of 12
Air Quality Not available.
Flu Activity Sporadic
METAR KBKF 280658Z 20006KT 10SM FEW120 SCT220 12/08 A3008 RMK AO2A SLP125 T01240078 402410086

More Conditions Fewer Conditions

Pressure 29.90 in
Visibility 10.0 miles
Clouds Few 12000 ft
Scattered Clouds 22000 ft
Dew Point 48 °F
Humidity 83%
Rainfall 0.00 in
Snow Depth Not available.
UV 0 out of 12
Pollen 8.00 out of 12
Air Quality Not available.
Flu Activity Sporadic
METAR KBKF 280658Z 20006KT 10SM FEW120 SCT220 12/08 A3008 RMK AO2A SLP125 T01240078 402410086

More Conditions Fewer Conditions

10-Day Weather Forecast

Almanac

Astronomy

May. 28, 2015 Rise Set
Actual Time
Civil Twilight
Nautical Twilight
Astronomical Twilight
Moon
Length of Visible Light
Length of Day
Tomorrow will be .
, % of the Moon is Illuminated

Today's Extremes

State Highs State Lows

Community

WunderPhotos

Upload Photos

1,824,935 photos uploaded!

WunderBlogs® & News

Nearby

Air Quality

  Air Quality AQ Index Pollutant
Not available.

Snow Depth

Station Depth Elevation

Earthquake Activity

City Distance Mag. Time & Date
Minimum magnitude displayed is 2.5.

Coastal Water Temperatures

Place Temperature

Stations

Nearby Weather Stations

Station Location Temp. Windchill Dew Point Humidity Wind Precip. Elev Updated Type